sensor_id;sensor_type;location;lat;lon;timestamp;temperature;humidity
11617;DHT22;5864;52.998;9.068;2023-12-20T00:00:22;6.40;99.90
11617;DHT22;5864;52.998;9.068;2023-12-20T00:03:08;6.30;99.90
11617;DHT22;5864;52.998;9.068;2023-12-20T00:05:55;6.40;99.90
11617;DHT22;5864;52.998;9.068;2023-12-20T00:08:41;6.30;99.90
11617;DHT22;5864;52.998;9.068;2023-12-20T00:11:26;6.30;99.90
11617;DHT22;5864;52.998;9.068;2023-12-20T00:14:12;6.30;99.90
11617;DHT22;5864;52.998;9.068;2023-12-20T00:16:58;6.30;99.90
11617;DHT22;5864;52.998;9.068;2023-12-20T00:19:43;6.30;99.90
11617;DHT22;5864;52.998;9.068;2023-12-20T00:22:30;6.20;99.90
11617;DHT22;5864;52.998;9.068;2023-12-20T00:25:16;6.20;99.90
11617;DHT22;5864;52.998;9.068;2023-12-20T00:28:02;6.20;99.90
11617;DHT22;5864;52.998;9.068;2023-12-20T00:30:48;6.10;99.90
11617;DHT22;5864;52.998;9.068;2023-12-20T00:33:34;6.10;99.90
11617;DHT22;5864;52.998;9.068;2023-12-20T00:36:20;6.00;99.90
11617;DHT22;5864;52.998;9.068;2023-12-20T00:39:07;6.00;99.90
11617;DHT22;5864;52.998;9.068;2023-12-20T00:41:53;6.00;99.90
11617;DHT22;5864;52.998;9.068;2023-12-20T00:44:38;6.00;99.90
11617;DHT22;5864;52.998;9.068;2023-12-20T00:47:24;5.90;99.90
11617;DHT22;5864;52.998;9.068;2023-12-20T00:50:10;5.90;99.90
11617;DHT22;5864;52.998;9.068;2023-12-20T00:52:56;5.90;99.90
11617;DHT22;5864;52.998;9.068;2023-12-20T00:55:43;5.90;99.90
11617;DHT22;5864;52.998;9.068;2023-12-20T00:58:29;5.80;99.90
11617;DHT22;5864;52.998;9.068;2023-12-20T01:01:15;5.80;99.90
11617;DHT22;5864;52.998;9.068;2023-12-20T01:04:01;5.80;99.90
11617;DHT22;5864;52.998;9.068;2023-12-20T01:06:46;5.80;99.90
11617;DHT22;5864;52.998;9.068;2023-12-20T01:09:32;5.80;99.90
11617;DHT22;5864;52.998;9.068;2023-12-20T01:12:19;5.80;99.90
11617;DHT22;5864;52.998;9.068;2023-12-20T01:15:06;5.80;99.90
11617;DHT22;5864;52.998;9.068;2023-12-20T01:17:52;5.70;99.90
11617;DHT22;5864;52.998;9.068;2023-12-20T01:20:37;5.70;99.90
11617;DHT22;5864;52.998;9.068;2023-12-20T01:23:24;5.60;99.90
11617;DHT22;5864;52.998;9.068;2023-12-20T01:26:09;5.60;99.90
11617;DHT22;5864;52.998;9.068;2023-12-20T01:28:57;5.60;99.90
11617;DHT22;5864;52.998;9.068;2023-12-20T01:31:43;5.60;99.90
11617;DHT22;5864;52.998;9.068;2023-12-20T01:34:28;5.60;99.90
11617;DHT22;5864;52.998;9.068;2023-12-20T01:37:14;5.50;99.90
11617;DHT22;5864;52.998;9.068;2023-12-20T01:40:00;5.50;99.90
11617;DHT22;5864;52.998;9.068;2023-12-20T01:42:46;5.50;99.90
11617;DHT22;5864;52.998;9.068;2023-12-20T01:45:33;5.40;99.90
11617;DHT22;5864;52.998;9.068;2023-12-20T01:48:20;5.40;99.90
11617;DHT22;5864;52.998;9.068;2023-12-20T01:51:05;5.40;99.90
11617;DHT22;5864;52.998;9.068;2023-12-20T01:53:52;5.40;99.90
11617;DHT22;5864;52.998;9.068;2023-12-20T01:56:38;5.50;99.90
11617;DHT22;5864;52.998;9.068;2023-12-20T01:59:25;5.50;99.90
11617;DHT22;5864;52.998;9.068;2023-12-20T02:02:12;5.50;99.90
11617;DHT22;5864;52.998;9.068;2023-12-20T02:04:58;5.60;99.90
11617;DHT22;5864;52.998;9.068;2023-12-20T02:07:43;5.60;99.90
11617;DHT22;5864;52.998;9.068;2023-12-20T02:10:29;5.60;99.90
11617;DHT22;5864;52.998;9.068;2023-12-20T02:13:16;5.50;99.90
11617;DHT22;5864;52.998;9.068;2023-12-20T02:16:01;5.50;99.90
11617;DHT22;5864;52.998;9.068;2023-12-20T02:18:48;5.50;99.90
11617;DHT22;5864;52.998;9.068;2023-12-20T02:21:35;5.50;99.90
11617;DHT22;5864;52.998;9.068;2023-12-20T02:24:21;5.50;99.90
11617;DHT22;5864;52.998;9.068;2023-12-20T02:27:07;5.40;99.90
11617;DHT22;5864;52.998;9.068;2023-12-20T02:29:52;5.40;99.90
11617;DHT22;5864;52.998;9.068;2023-12-20T02:32:38;5.40;99.90
11617;DHT22;5864;52.998;9.068;2023-12-20T02:35:24;5.40;99.90
11617;DHT22;5864;52.998;9.068;2023-12-20T02:38:11;5.40;99.90
11617;DHT22;5864;52.998;9.068;2023-12-20T02:40:58;5.40;99.90
11617;DHT22;5864;52.998;9.068;2023-12-20T02:43:45;5.40;99.90
11617;DHT22;5864;52.998;9.068;2023-12-20T02:46:30;5.40;99.90
11617;DHT22;5864;52.998;9.068;2023-12-20T02:49:16;5.30;99.90
11617;DHT22;5864;52.998;9.068;2023-12-20T02:52:02;5.30;99.90
11617;DHT22;5864;52.998;9.068;2023-12-20T02:54:49;5.30;99.90
11617;DHT22;5864;52.998;9.068;2023-12-20T02:57:35;5.30;99.90
11617;DHT22;5864;52.998;9.068;2023-12-20T03:00:21;5.30;99.90
11617;DHT22;5864;52.998;9.068;2023-12-20T03:03:06;5.30;99.90
11617;DHT22;5864;52.998;9.068;2023-12-20T03:05:52;5.30;99.90
11617;DHT22;5864;52.998;9.068;2023-12-20T03:08:37;5.20;99.90
11617;DHT22;5864;52.998;9.068;2023-12-20T03:11:28;5.20;99.90
11617;DHT22;5864;52.998;9.068;2023-12-20T03:14:14;5.30;99.90
11617;DHT22;5864;52.998;9.068;2023-12-20T03:17:00;5.30;99.90
11617;DHT22;5864;52.998;9.068;2023-12-20T03:19:45;5.40;99.90
11617;DHT22;5864;52.998;9.068;2023-12-20T03:22:31;5.40;99.90
11617;DHT22;5864;52.998;9.068;2023-12-20T03:25:17;5.50;99.90
11617;DHT22;5864;52.998;9.068;2023-12-20T03:28:04;5.50;99.90
11617;DHT22;5864;52.998;9.068;2023-12-20T03:30:50;5.60;99.90
11617;DHT22;5864;52.998;9.068;2023-12-20T03:33:35;5.50;99.90
11617;DHT22;5864;52.998;9.068;2023-12-20T03:36:22;5.50;99.90
11617;DHT22;5864;52.998;9.068;2023-12-20T03:39:07;5.50;99.90
11617;DHT22;5864;52.998;9.068;2023-12-20T03:41:54;5.60;99.90
11617;DHT22;5864;52.998;9.068;2023-12-20T03:44:41;5.70;99.90
11617;DHT22;5864;52.998;9.068;2023-12-20T03:47:27;5.60;99.90
11617;DHT22;5864;52.998;9.068;2023-12-20T03:50:13;5.60;99.90
11617;DHT22;5864;52.998;9.068;2023-12-20T03:52:59;5.70;99.90
11617;DHT22;5864;52.998;9.068;2023-12-20T03:55:44;5.70;99.90
11617;DHT22;5864;52.998;9.068;2023-12-20T03:58:30;5.70;99.90
11617;DHT22;5864;52.998;9.068;2023-12-20T04:01:17;5.80;99.90
11617;DHT22;5864;52.998;9.068;2023-12-20T04:04:03;5.80;99.90
11617;DHT22;5864;52.998;9.068;2023-12-20T04:06:48;5.90;99.90
11617;DHT22;5864;52.998;9.068;2023-12-20T04:09:34;5.90;99.90
11617;DHT22;5864;52.998;9.068;2023-12-20T04:12:20;5.80;99.90
11617;DHT22;5864;52.998;9.068;2023-12-20T04:15:06;5.90;99.90
11617;DHT22;5864;52.998;9.068;2023-12-20T04:17:55;5.90;99.90
11617;DHT22;5864;52.998;9.068;2023-12-20T04:20:40;5.90;99.90
11617;DHT22;5864;52.998;9.068;2023-12-20T04:23:26;5.90;99.90
11617;DHT22;5864;52.998;9.068;2023-12-20T04:26:11;5.90;99.90
11617;DHT22;5864;52.998;9.068;2023-12-20T04:28:57;5.80;99.90
11617;DHT22;5864;52.998;9.068;2023-12-20T04:31:43;5.90;99.90
11617;DHT22;5864;52.998;9.068;2023-12-20T04:34:30;5.90;99.90
11617;DHT22;5864;52.998;9.068;2023-12-20T04:37:16;5.90;99.90
11617;DHT22;5864;52.998;9.068;2023-12-20T04:40:02;5.80;99.90
11617;DHT22;5864;52.998;9.068;2023-12-20T04:42:50;5.80;99.90
11617;DHT22;5864;52.998;9.068;2023-12-20T04:45:36;5.90;99.90
11617;DHT22;5864;52.998;9.068;2023-12-20T04:48:22;5.90;99.90
11617;DHT22;5864;52.998;9.068;2023-12-20T04:51:09;5.90;99.90
11617;DHT22;5864;52.998;9.068;2023-12-20T04:53:54;6.00;99.90
11617;DHT22;5864;52.998;9.068;2023-12-20T04:56:40;6.00;99.90
11617;DHT22;5864;52.998;9.068;2023-12-20T04:59:25;6.00;99.90
11617;DHT22;5864;52.998;9.068;2023-12-20T05:02:11;6.00;99.90
11617;DHT22;5864;52.998;9.068;2023-12-20T05:04:56;6.00;99.90
11617;DHT22;5864;52.998;9.068;2023-12-20T05:07:43;6.00;99.90
11617;DHT22;5864;52.998;9.068;2023-12-20T05:10:29;6.00;99.90
11617;DHT22;5864;52.998;9.068;2023-12-20T05:13:15;6.00;99.90
11617;DHT22;5864;52.998;9.068;2023-12-20T05:16:01;6.00;99.90
11617;DHT22;5864;52.998;9.068;2023-12-20T05:18:48;6.00;99.90
11617;DHT22;5864;52.998;9.068;2023-12-20T05:21:34;6.00;99.90
11617;DHT22;5864;52.998;9.068;2023-12-20T05:24:22;6.00;99.90
11617;DHT22;5864;52.998;9.068;2023-12-20T05:27:08;6.00;99.90
11617;DHT22;5864;52.998;9.068;2023-12-20T05:29:54;6.00;99.90
11617;DHT22;5864;52.998;9.068;2023-12-20T05:32:41;5.90;99.90
11617;DHT22;5864;52.998;9.068;2023-12-20T05:35:28;5.90;99.90
11617;DHT22;5864;52.998;9.068;2023-12-20T05:38:14;6.00;99.90
11617;DHT22;5864;52.998;9.068;2023-12-20T05:41:01;6.00;99.90
11617;DHT22;5864;52.998;9.068;2023-12-20T05:43:48;6.00;99.90
11617;DHT22;5864;52.998;9.068;2023-12-20T05:46:34;6.00;99.90
11617;DHT22;5864;52.998;9.068;2023-12-20T05:49:19;6.00;99.90
11617;DHT22;5864;52.998;9.068;2023-12-20T05:52:06;6.00;99.90
11617;DHT22;5864;52.998;9.068;2023-12-20T05:54:51;6.00;99.90
11617;DHT22;5864;52.998;9.068;2023-12-20T05:57:39;6.00;99.90
11617;DHT22;5864;52.998;9.068;2023-12-20T06:00:24;6.00;99.90
11617;DHT22;5864;52.998;9.068;2023-12-20T06:03:10;5.90;99.90
11617;DHT22;5864;52.998;9.068;2023-12-20T06:05:56;5.90;99.90
11617;DHT22;5864;52.998;9.068;2023-12-20T06:08:42;5.90;99.90
11617;DHT22;5864;52.998;9.068;2023-12-20T06:11:28;5.90;99.90
11617;DHT22;5864;52.998;9.068;2023-12-20T06:14:15;6.00;99.90
11617;DHT22;5864;52.998;9.068;2023-12-20T06:17:02;6.00;99.90
11617;DHT22;5864;52.998;9.068;2023-12-20T06:19:47;6.00;99.90
11617;DHT22;5864;52.998;9.068;2023-12-20T06:22:34;6.00;99.90
11617;DHT22;5864;52.998;9.068;2023-12-20T06:25:20;6.10;99.90
11617;DHT22;5864;52.998;9.068;2023-12-20T06:28:06;6.10;99.90
11617;DHT22;5864;52.998;9.068;2023-12-20T06:30:53;6.10;99.90
11617;DHT22;5864;52.998;9.068;2023-12-20T06:33:39;6.10;99.90
11617;DHT22;5864;52.998;9.068;2023-12-20T06:36:26;6.20;99.90
11617;DHT22;5864;52.998;9.068;2023-12-20T06:39:12;6.10;99.90
11617;DHT22;5864;52.998;9.068;2023-12-20T06:41:58;6.20;99.90
11617;DHT22;5864;52.998;9.068;2023-12-20T06:44:43;6.20;99.90
11617;DHT22;5864;52.998;9.068;2023-12-20T06:47:30;6.20;99.90
11617;DHT22;5864;52.998;9.068;2023-12-20T06:50:17;6.20;99.90
11617;DHT22;5864;52.998;9.068;2023-12-20T06:53:03;6.30;99.90
11617;DHT22;5864;52.998;9.068;2023-12-20T06:55:52;6.30;99.90
11617;DHT22;5864;52.998;9.068;2023-12-20T06:58:38;6.20;99.90
11617;DHT22;5864;52.998;9.068;2023-12-20T07:01:23;6.20;99.90
11617;DHT22;5864;52.998;9.068;2023-12-20T07:04:11;6.20;99.90
11617;DHT22;5864;52.998;9.068;2023-12-20T07:06:57;6.20;99.90
11617;DHT22;5864;52.998;9.068;2023-12-20T07:09:45;6.20;99.90
11617;DHT22;5864;52.998;9.068;2023-12-20T07:12:30;6.20;99.90
11617;DHT22;5864;52.998;9.068;2023-12-20T07:15:16;6.20;99.90
11617;DHT22;5864;52.998;9.068;2023-12-20T07:18:03;6.20;99.90
11617;DHT22;5864;52.998;9.068;2023-12-20T07:20:52;6.20;99.90
11617;DHT22;5864;52.998;9.068;2023-12-20T07:23:38;6.20;99.90
11617;DHT22;5864;52.998;9.068;2023-12-20T07:26:24;6.20;99.90
11617;DHT22;5864;52.998;9.068;2023-12-20T07:29:10;6.30;99.90
11617;DHT22;5864;52.998;9.068;2023-12-20T07:31:55;6.30;99.90
11617;DHT22;5864;52.998;9.068;2023-12-20T07:34:42;6.30;99.90
11617;DHT22;5864;52.998;9.068;2023-12-20T07:37:29;6.30;99.90
11617;DHT22;5864;52.998;9.068;2023-12-20T07:40:14;6.40;99.90
11617;DHT22;5864;52.998;9.068;2023-12-20T07:43:01;6.40;99.90
11617;DHT22;5864;52.998;9.068;2023-12-20T07:45:47;6.40;99.90
11617;DHT22;5864;52.998;9.068;2023-12-20T07:48:33;6.40;99.90
11617;DHT22;5864;52.998;9.068;2023-12-20T07:51:18;6.50;99.90
11617;DHT22;5864;52.998;9.068;2023-12-20T07:54:10;6.50;99.90
11617;DHT22;5864;52.998;9.068;2023-12-20T07:56:57;6.50;99.90
11617;DHT22;5864;52.998;9.068;2023-12-20T07:59:42;6.50;99.90
11617;DHT22;5864;52.998;9.068;2023-12-20T08:02:29;6.50;99.90
11617;DHT22;5864;52.998;9.068;2023-12-20T08:05:14;6.60;99.90
11617;DHT22;5864;52.998;9.068;2023-12-20T08:08:01;6.60;99.90
11617;DHT22;5864;52.998;9.068;2023-12-20T08:10:48;6.60;99.90
11617;DHT22;5864;52.998;9.068;2023-12-20T08:13:33;6.60;99.90
11617;DHT22;5864;52.998;9.068;2023-12-20T08:16:19;6.60;99.90
11617;DHT22;5864;52.998;9.068;2023-12-20T08:19:04;6.70;99.90
11617;DHT22;5864;52.998;9.068;2023-12-20T08:21:51;6.70;99.90
11617;DHT22;5864;52.998;9.068;2023-12-20T08:24:37;6.70;99.90
11617;DHT22;5864;52.998;9.068;2023-12-20T08:27:24;6.80;99.90
11617;DHT22;5864;52.998;9.068;2023-12-20T08:30:10;6.80;99.90
11617;DHT22;5864;52.998;9.068;2023-12-20T08:32:56;6.70;99.90
11617;DHT22;5864;52.998;9.068;2023-12-20T08:35:42;6.60;99.90
11617;DHT22;5864;52.998;9.068;2023-12-20T08:38:27;6.70;99.90
11617;DHT22;5864;52.998;9.068;2023-12-20T08:41:13;6.70;99.90
11617;DHT22;5864;52.998;9.068;2023-12-20T08:44:00;6.80;99.90
11617;DHT22;5864;52.998;9.068;2023-12-20T08:46:46;6.80;99.90
11617;DHT22;5864;52.998;9.068;2023-12-20T08:49:32;6.80;99.90
11617;DHT22;5864;52.998;9.068;2023-12-20T08:52:17;6.90;99.90
11617;DHT22;5864;52.998;9.068;2023-12-20T08:55:04;6.90;99.90
11617;DHT22;5864;52.998;9.068;2023-12-20T08:57:50;6.90;99.90
11617;DHT22;5864;52.998;9.068;2023-12-20T09:00:37;7.00;99.90
11617;DHT22;5864;52.998;9.068;2023-12-20T09:03:22;7.00;99.90
11617;DHT22;5864;52.998;9.068;2023-12-20T09:06:09;7.00;99.90
11617;DHT22;5864;52.998;9.068;2023-12-20T09:08:54;7.00;99.90
11617;DHT22;5864;52.998;9.068;2023-12-20T09:11:40;7.00;99.90
11617;DHT22;5864;52.998;9.068;2023-12-20T09:14:25;7.00;99.90
11617;DHT22;5864;52.998;9.068;2023-12-20T09:17:13;7.00;99.90
11617;DHT22;5864;52.998;9.068;2023-12-20T09:19:58;7.00;99.90
11617;DHT22;5864;52.998;9.068;2023-12-20T09:22:45;7.00;99.90
11617;DHT22;5864;52.998;9.068;2023-12-20T09:25:31;7.00;99.90
11617;DHT22;5864;52.998;9.068;2023-12-20T09:28:16;7.00;99.90
11617;DHT22;5864;52.998;9.068;2023-12-20T09:31:03;7.00;99.90
11617;DHT22;5864;52.998;9.068;2023-12-20T09:33:50;7.00;99.90
11617;DHT22;5864;52.998;9.068;2023-12-20T09:36:35;7.00;99.90
11617;DHT22;5864;52.998;9.068;2023-12-20T09:39:23;7.00;99.90
11617;DHT22;5864;52.998;9.068;2023-12-20T09:42:11;6.90;99.90
11617;DHT22;5864;52.998;9.068;2023-12-20T09:45:01;6.90;99.90
11617;DHT22;5864;52.998;9.068;2023-12-20T09:47:47;6.90;99.90
11617;DHT22;5864;52.998;9.068;2023-12-20T09:50:35;6.90;99.90
11617;DHT22;5864;52.998;9.068;2023-12-20T09:53:22;6.90;99.90
11617;DHT22;5864;52.998;9.068;2023-12-20T09:56:15;6.90;99.90
11617;DHT22;5864;52.998;9.068;2023-12-20T09:59:01;6.90;99.90
11617;DHT22;5864;52.998;9.068;2023-12-20T10:01:47;6.90;99.90
11617;DHT22;5864;52.998;9.068;2023-12-20T10:04:32;6.90;99.90
11617;DHT22;5864;52.998;9.068;2023-12-20T10:07:19;6.90;99.90
11617;DHT22;5864;52.998;9.068;2023-12-20T10:10:07;6.90;99.90
11617;DHT22;5864;52.998;9.068;2023-12-20T10:13:03;6.80;99.90
11617;DHT22;5864;52.998;9.068;2023-12-20T10:15:49;6.50;99.90
11617;DHT22;5864;52.998;9.068;2023-12-20T10:18:35;6.30;99.90
11617;DHT22;5864;52.998;9.068;2023-12-20T10:21:21;6.10;99.90
11617;DHT22;5864;52.998;9.068;2023-12-20T10:24:09;6.10;99.90
11617;DHT22;5864;52.998;9.068;2023-12-20T10:27:02;6.10;99.90
11617;DHT22;5864;52.998;9.068;2023-12-20T10:29:49;5.90;99.90
11617;DHT22;5864;52.998;9.068;2023-12-20T10:32:35;5.90;99.90
11617;DHT22;5864;52.998;9.068;2023-12-20T10:35:21;6.00;99.90
11617;DHT22;5864;52.998;9.068;2023-12-20T10:38:06;6.00;99.90
11617;DHT22;5864;52.998;9.068;2023-12-20T10:40:57;6.00;99.90
11617;DHT22;5864;52.998;9.068;2023-12-20T10:43:43;6.00;99.90
11617;DHT22;5864;52.998;9.068;2023-12-20T10:46:30;6.00;99.90
11617;DHT22;5864;52.998;9.068;2023-12-20T10:49:17;5.90;99.90
11617;DHT22;5864;52.998;9.068;2023-12-20T10:52:06;5.90;99.90
11617;DHT22;5864;52.998;9.068;2023-12-20T10:54:51;6.00;99.90
11617;DHT22;5864;52.998;9.068;2023-12-20T10:57:39;5.90;99.90
11617;DHT22;5864;52.998;9.068;2023-12-20T11:00:25;5.90;99.90
11617;DHT22;5864;52.998;9.068;2023-12-20T11:03:12;5.90;99.90
11617;DHT22;5864;52.998;9.068;2023-12-20T11:06:01;5.90;99.90
11617;DHT22;5864;52.998;9.068;2023-12-20T11:08:53;6.10;99.90
11617;DHT22;5864;52.998;9.068;2023-12-20T11:12:01;6.20;99.90
11617;DHT22;5864;52.998;9.068;2023-12-20T11:14:52;6.20;99.90
11617;DHT22;5864;52.998;9.068;2023-12-20T11:17:40;6.10;99.90
11617;DHT22;5864;52.998;9.068;2023-12-20T11:20:36;6.10;99.90
11617;DHT22;5864;52.998;9.068;2023-12-20T11:23:22;6.10;99.90
11617;DHT22;5864;52.998;9.068;2023-12-20T11:26:08;6.10;99.90
11617;DHT22;5864;52.998;9.068;2023-12-20T11:28:54;6.20;99.90
11617;DHT22;5864;52.998;9.068;2023-12-20T11:31:41;6.20;99.90
11617;DHT22;5864;52.998;9.068;2023-12-20T11:34:28;6.30;99.90
11617;DHT22;5864;52.998;9.068;2023-12-20T11:37:14;6.30;99.90
11617;DHT22;5864;52.998;9.068;2023-12-20T11:40:01;6.30;99.90
11617;DHT22;5864;52.998;9.068;2023-12-20T11:42:49;6.30;99.90
11617;DHT22;5864;52.998;9.068;2023-12-20T11:45:36;6.30;99.90
11617;DHT22;5864;52.998;9.068;2023-12-20T11:48:23;6.40;99.90
11617;DHT22;5864;52.998;9.068;2023-12-20T11:51:09;6.50;99.90
11617;DHT22;5864;52.998;9.068;2023-12-20T11:53:55;6.50;99.90
11617;DHT22;5864;52.998;9.068;2023-12-20T11:56:41;6.50;99.90
11617;DHT22;5864;52.998;9.068;2023-12-20T11:59:26;6.60;99.90
11617;DHT22;5864;52.998;9.068;2023-12-20T12:02:13;6.60;99.90
11617;DHT22;5864;52.998;9.068;2023-12-20T12:05:00;6.60;99.90
11617;DHT22;5864;52.998;9.068;2023-12-20T12:07:46;6.70;99.90
11617;DHT22;5864;52.998;9.068;2023-12-20T12:10:32;6.80;99.90
11617;DHT22;5864;52.998;9.068;2023-12-20T12:13:17;6.80;99.90
11617;DHT22;5864;52.998;9.068;2023-12-20T12:16:04;6.80;99.90
11617;DHT22;5864;52.998;9.068;2023-12-20T12:18:56;6.90;99.90
11617;DHT22;5864;52.998;9.068;2023-12-20T12:21:43;6.90;99.90
11617;DHT22;5864;52.998;9.068;2023-12-20T12:24:28;6.90;99.90
11617;DHT22;5864;52.998;9.068;2023-12-20T12:27:15;7.00;99.90
11617;DHT22;5864;52.998;9.068;2023-12-20T12:30:01;7.00;99.90
11617;DHT22;5864;52.998;9.068;2023-12-20T12:32:48;7.00;99.90
11617;DHT22;5864;52.998;9.068;2023-12-20T12:35:34;7.00;99.90
11617;DHT22;5864;52.998;9.068;2023-12-20T12:38:22;7.00;99.90
11617;DHT22;5864;52.998;9.068;2023-12-20T12:41:07;7.00;99.90
11617;DHT22;5864;52.998;9.068;2023-12-20T12:43:54;7.10;99.90
11617;DHT22;5864;52.998;9.068;2023-12-20T12:46:40;7.20;99.90
11617;DHT22;5864;52.998;9.068;2023-12-20T12:49:27;7.20;99.90
11617;DHT22;5864;52.998;9.068;2023-12-20T12:52:14;7.30;99.90
11617;DHT22;5864;52.998;9.068;2023-12-20T12:55:01;7.30;99.90
11617;DHT22;5864;52.998;9.068;2023-12-20T12:57:47;7.40;99.90
11617;DHT22;5864;52.998;9.068;2023-12-20T13:00:33;7.40;79.30
11617;DHT22;5864;52.998;9.068;2023-12-20T13:03:19;7.40;77.00
11617;DHT22;5864;52.998;9.068;2023-12-20T13:06:05;7.50;98.80
11617;DHT22;5864;52.998;9.068;2023-12-20T13:08:53;7.40;92.90
11617;DHT22;5864;52.998;9.068;2023-12-20T13:11:40;7.50;99.60
11617;DHT22;5864;52.998;9.068;2023-12-20T13:14:26;7.50;99.90
11617;DHT22;5864;52.998;9.068;2023-12-20T13:17:12;7.60;99.90
11617;DHT22;5864;52.998;9.068;2023-12-20T13:19:57;7.60;95.00
11617;DHT22;5864;52.998;9.068;2023-12-20T13:22:43;7.30;87.60
11617;DHT22;5864;52.998;9.068;2023-12-20T13:25:30;7.20;84.70
11617;DHT22;5864;52.998;9.068;2023-12-20T13:28:17;7.10;99.90
11617;DHT22;5864;52.998;9.068;2023-12-20T13:31:03;7.10;99.90
11617;DHT22;5864;52.998;9.068;2023-12-20T13:33:48;7.10;99.90
11617;DHT22;5864;52.998;9.068;2023-12-20T13:36:35;7.10;99.90
11617;DHT22;5864;52.998;9.068;2023-12-20T13:39:21;7.20;99.90
11617;DHT22;5864;52.998;9.068;2023-12-20T13:42:07;7.20;99.90
11617;DHT22;5864;52.998;9.068;2023-12-20T13:44:54;7.30;99.90
11617;DHT22;5864;52.998;9.068;2023-12-20T13:47:40;7.30;99.90
11617;DHT22;5864;52.998;9.068;2023-12-20T13:50:25;7.40;99.90
11617;DHT22;5864;52.998;9.068;2023-12-20T13:53:11;7.30;99.90
11617;DHT22;5864;52.998;9.068;2023-12-20T13:55:58;7.40;99.90
11617;DHT22;5864;52.998;9.068;2023-12-20T13:58:44;7.40;99.90
11617;DHT22;5864;52.998;9.068;2023-12-20T14:01:32;7.40;99.90
11617;DHT22;5864;52.998;9.068;2023-12-20T14:04:17;7.30;99.90
11617;DHT22;5864;52.998;9.068;2023-12-20T14:07:03;7.20;99.90
11617;DHT22;5864;52.998;9.068;2023-12-20T14:09:48;7.10;99.90
11617;DHT22;5864;52.998;9.068;2023-12-20T14:12:36;7.10;99.90
11617;DHT22;5864;52.998;9.068;2023-12-20T14:15:22;7.00;99.90
11617;DHT22;5864;52.998;9.068;2023-12-20T14:18:11;7.00;99.90
11617;DHT22;5864;52.998;9.068;2023-12-20T14:20:59;7.00;99.90
11617;DHT22;5864;52.998;9.068;2023-12-20T14:23:45;7.00;99.90
11617;DHT22;5864;52.998;9.068;2023-12-20T14:26:30;6.90;99.90
11617;DHT22;5864;52.998;9.068;2023-12-20T14:29:16;6.80;99.90
11617;DHT22;5864;52.998;9.068;2023-12-20T14:32:02;6.80;99.90
11617;DHT22;5864;52.998;9.068;2023-12-20T14:34:50;6.80;99.90
11617;DHT22;5864;52.998;9.068;2023-12-20T14:37:36;6.80;99.90
11617;DHT22;5864;52.998;9.068;2023-12-20T14:40:24;6.80;99.90
11617;DHT22;5864;52.998;9.068;2023-12-20T14:43:11;6.60;99.90
11617;DHT22;5864;52.998;9.068;2023-12-20T14:45:56;6.60;99.90
11617;DHT22;5864;52.998;9.068;2023-12-20T14:48:43;6.60;99.90
11617;DHT22;5864;52.998;9.068;2023-12-20T14:51:30;6.60;99.90
11617;DHT22;5864;52.998;9.068;2023-12-20T14:54:15;6.50;99.90
11617;DHT22;5864;52.998;9.068;2023-12-20T14:57:02;6.50;99.90
11617;DHT22;5864;52.998;9.068;2023-12-20T14:59:48;6.50;99.90
11617;DHT22;5864;52.998;9.068;2023-12-20T15:02:34;6.50;99.90
11617;DHT22;5864;52.998;9.068;2023-12-20T15:05:20;6.50;99.90
11617;DHT22;5864;52.998;9.068;2023-12-20T15:08:07;6.40;99.90
11617;DHT22;5864;52.998;9.068;2023-12-20T15:10:54;6.40;99.90
11617;DHT22;5864;52.998;9.068;2023-12-20T15:13:41;6.50;99.90
11617;DHT22;5864;52.998;9.068;2023-12-20T15:16:26;6.40;99.90
11617;DHT22;5864;52.998;9.068;2023-12-20T15:19:13;6.40;99.90
11617;DHT22;5864;52.998;9.068;2023-12-20T15:21:59;6.50;99.90
11617;DHT22;5864;52.998;9.068;2023-12-20T15:24:46;6.50;99.90
11617;DHT22;5864;52.998;9.068;2023-12-20T15:27:32;6.50;99.90
11617;DHT22;5864;52.998;9.068;2023-12-20T15:30:20;6.40;99.90
11617;DHT22;5864;52.998;9.068;2023-12-20T15:33:05;6.40;99.90
11617;DHT22;5864;52.998;9.068;2023-12-20T15:35:52;6.50;99.90
11617;DHT22;5864;52.998;9.068;2023-12-20T15:38:38;6.50;99.90
11617;DHT22;5864;52.998;9.068;2023-12-20T15:41:25;6.60;99.90
11617;DHT22;5864;52.998;9.068;2023-12-20T15:44:11;6.60;99.90
11617;DHT22;5864;52.998;9.068;2023-12-20T15:46:57;6.60;99.90
11617;DHT22;5864;52.998;9.068;2023-12-20T15:49:42;6.60;99.90
11617;DHT22;5864;52.998;9.068;2023-12-20T15:52:30;6.60;99.90
11617;DHT22;5864;52.998;9.068;2023-12-20T15:55:16;6.50;99.90
11617;DHT22;5864;52.998;9.068;2023-12-20T15:58:02;6.60;99.90
11617;DHT22;5864;52.998;9.068;2023-12-20T16:00:48;6.60;99.90
11617;DHT22;5864;52.998;9.068;2023-12-20T16:03:35;6.50;99.90
11617;DHT22;5864;52.998;9.068;2023-12-20T16:06:20;6.50;99.90
11617;DHT22;5864;52.998;9.068;2023-12-20T16:09:07;6.50;99.90
11617;DHT22;5864;52.998;9.068;2023-12-20T16:11:52;6.50;99.90
11617;DHT22;5864;52.998;9.068;2023-12-20T16:14:40;6.50;99.90
11617;DHT22;5864;52.998;9.068;2023-12-20T16:17:26;6.40;99.90
11617;DHT22;5864;52.998;9.068;2023-12-20T16:20:11;6.50;99.90
11617;DHT22;5864;52.998;9.068;2023-12-20T16:22:57;6.50;99.90
11617;DHT22;5864;52.998;9.068;2023-12-20T16:25:42;6.40;99.90
11617;DHT22;5864;52.998;9.068;2023-12-20T16:28:28;6.40;99.90
11617;DHT22;5864;52.998;9.068;2023-12-20T16:31:15;6.50;99.90
11617;DHT22;5864;52.998;9.068;2023-12-20T16:34:01;6.40;99.90
11617;DHT22;5864;52.998;9.068;2023-12-20T16:36:51;6.50;99.90
11617;DHT22;5864;52.998;9.068;2023-12-20T16:39:39;6.50;99.90
11617;DHT22;5864;52.998;9.068;2023-12-20T16:42:24;6.50;99.90
11617;DHT22;5864;52.998;9.068;2023-12-20T16:45:10;6.50;99.90
11617;DHT22;5864;52.998;9.068;2023-12-20T16:47:57;6.40;99.90
11617;DHT22;5864;52.998;9.068;2023-12-20T16:50:43;6.40;99.90
11617;DHT22;5864;52.998;9.068;2023-12-20T16:53:28;6.40;99.90
11617;DHT22;5864;52.998;9.068;2023-12-20T16:56:14;6.40;99.90
11617;DHT22;5864;52.998;9.068;2023-12-20T16:59:00;6.40;99.90
11617;DHT22;5864;52.998;9.068;2023-12-20T17:01:45;6.40;99.90
11617;DHT22;5864;52.998;9.068;2023-12-20T17:04:32;6.40;99.90
11617;DHT22;5864;52.998;9.068;2023-12-20T17:07:20;6.40;99.90
11617;DHT22;5864;52.998;9.068;2023-12-20T17:10:06;6.40;99.90
11617;DHT22;5864;52.998;9.068;2023-12-20T17:12:52;6.40;99.90
11617;DHT22;5864;52.998;9.068;2023-12-20T17:15:38;6.40;99.90
11617;DHT22;5864;52.998;9.068;2023-12-20T17:18:24;6.30;99.90
11617;DHT22;5864;52.998;9.068;2023-12-20T17:21:11;6.30;99.90
11617;DHT22;5864;52.998;9.068;2023-12-20T17:23:57;6.30;99.90
11617;DHT22;5864;52.998;9.068;2023-12-20T17:26:43;6.30;99.90
11617;DHT22;5864;52.998;9.068;2023-12-20T17:29:29;6.30;99.90
11617;DHT22;5864;52.998;9.068;2023-12-20T17:32:14;6.30;99.90
11617;DHT22;5864;52.998;9.068;2023-12-20T17:35:00;6.30;99.90
11617;DHT22;5864;52.998;9.068;2023-12-20T17:37:47;6.20;99.90
11617;DHT22;5864;52.998;9.068;2023-12-20T17:40:33;6.20;99.90
11617;DHT22;5864;52.998;9.068;2023-12-20T17:43:20;6.30;99.90
11617;DHT22;5864;52.998;9.068;2023-12-20T17:46:05;6.30;99.90
11617;DHT22;5864;52.998;9.068;2023-12-20T17:48:52;6.30;99.90
11617;DHT22;5864;52.998;9.068;2023-12-20T17:51:37;6.30;99.90
11617;DHT22;5864;52.998;9.068;2023-12-20T17:54:24;6.30;99.90
11617;DHT22;5864;52.998;9.068;2023-12-20T17:57:11;6.20;99.90
11617;DHT22;5864;52.998;9.068;2023-12-20T17:59:56;6.20;99.90
11617;DHT22;5864;52.998;9.068;2023-12-20T18:02:56;6.20;99.90
11617;DHT22;5864;52.998;9.068;2023-12-20T18:05:42;6.30;99.90